• Join FlightAware (Why Join?)
  • Login
  • US Flag 
06:46PM EDT


 

Airport Tracker/Info


-or-


 

Live Flight TrackerFlight Track Log ✈ BJS542 ✈ 24-Aug-2013 ✈ KBUR - KOAK

Flight Track Log - Related Links

Times and Time Zones

All times are in EDT time to prevent confusion due to time zone crossing. See the BJS542 flight status page for this flight to view local times or setup timezone preferences in your user account.

Time Position Orientation Groundspeed Altitude Reporting Facility
EDT Latitude Longitude Course Direction KTS MPH feet Rate Location/Type
06:22PM 34.1833 -118.3500 338° Northwest 173 199 1,900  Level Southern California TRACON
06:24PM 34.1325 -118.4156 227° Southwest 210 242 6,500 3,780 Climbing Los Angeles Center
06:25PM 34.1622 -118.5167 290° West 283 326 12,000 4,200 Climbing Los Angeles Center
06:26PM 34.2408 -118.5597 336° Northwest 308 354 15,300 3,300 Climbing Los Angeles Center
06:27PM 34.3289 -118.6072 336° Northwest 341 392 18,900 3,000 Climbing Los Angeles Center
06:28PM 34.5020 -118.7093 338° Northwest  Level FlightAware Approximate
06:28PM 34.4250 -118.6553 338° Northwest 372 428 21,600  Level Los Angeles Center
06:29PM 34.5256 -118.7114 335° Northwest 401 461 24,100 2,460 Climbing Los Angeles Center
06:30PM 34.6297 -118.7683 336° Northwest 409 471 26,700 2,520 Climbing Los Angeles Center
06:31PM 34.7389 -118.8278 336° Northwest 428 493 29,400 2,580 Climbing Los Angeles Center
06:32PM 34.8606 -118.9200 328° Northwest 436 502 32,000 1,260 Climbing Los Angeles Center
06:33PM 34.9536 -119.0097 322° Northwest 442 509 32,000  Level Los Angeles Center
06:34PM 35.0606 -119.1089 323° Northwest 474 545 32,000  Level Los Angeles Center
06:35PM 35.1636 -119.2106 321° Northwest 477 549 32,000  Level Los Angeles Center
06:36PM 35.2650 -119.3108 321° Northwest 474 545 32,000  Level Los Angeles Center
06:37PM 35.3883 -119.4325 321° Northwest 477 549 32,000  Level Los Angeles Center
06:38PM 35.4917 -119.5342 321° Northwest 477 549 32,000  Level Los Angeles Center
06:39PM 35.5933 -119.6367 321° Northwest 477 549 32,000  Level Los Angeles Center
06:40PM 35.6958 -119.7386 321° Northwest 476 548 32,000  Level Los Angeles Center
06:41PM 35.7978 -119.8406 321° Northwest 476 548 32,000  Level Los Angeles Center
06:42PM 35.9194 -119.9644 321° Northwest 476 548 32,000  Level Los Angeles Center
06:43PM 36.0208 -120.0667 321° Northwest 474 545 32,000 -720 Level Los Angeles Center
06:45PM 36.1211 -120.1697 320° Northwest 472 543 30,400 -1,020 Descending Los Angeles Center
06:46PM 36.2353 -120.2861 321° Northwest 448 516 29,800 -840 Descending Los Angeles Center
06:47PM 36.3528 -120.4022 321° Northwest 456 525 28,500 -1,020 Descending Oakland Center
06:48PM 36.4528 -120.5067 320° Northwest 469 540 27,500 -1,080 Descending Oakland Center
06:49PM 36.5711 -120.6297 320° Northwest 465 535 26,300 -1,320 Descending Oakland Center
06:50PM 36.6706 -120.7300 321° Northwest 462 532 24,900 -1,680 Descending Oakland Center
06:51PM 36.7667 -120.8333 319° Northwest 458 527 22,900 -1,920 Descending Oakland Center
06:52PM 36.8533 -120.9372 316° Northwest 452 520 21,000 -2,040 Descending Oakland Center
06:53PM 36.9381 -121.0339 318° Northwest 421 484 18,800 -2,040 Descending Oakland Center
06:54PM 37.0194 -121.1275 317° Northwest 400 460 16,900 -1,860 Descending Oakland Center
06:55PM 37.0969 -121.2161 318° Northwest 382 440 15,100 -1,860 Descending Oakland Center
06:56PM 37.1758 -121.3058 318° Northwest 382 440 13,200 -2,040 Descending Oakland Center
06:57PM 37.2683 -121.4158 317° Northwest 382 440 11,000 -1,680 Descending Oakland Center
06:58PM 37.3392 -121.4978 317° Northwest 348 400 9,900 -1,380 Descending Oakland Center
06:59PM 37.3994 -121.5681 317° Northwest 292 336 8,300 -1,560 Descending Oakland Center
07:00PM 37.4544 -121.6425 313° West 290 334 6,800 -1,140 Descending Oakland Center
07:01PM 37.5011 -121.7247 306° West 290 334 6,000 -420 Descending Oakland Center
07:02PM 37.5456 -121.8025 306° West 280 322 6,000 -360 Level Oakland Center
07:03PM 37.5911 -121.8819 306° West 280 322 5,300 -960 Descending Oakland Center
07:04PM 37.6367 -121.9611 306° West 280 322 4,100 -1,260 Descending Oakland Center
07:05PM 37.6683 -122.0347 299° West 252 290 2,800 -1,020 Descending Oakland Center
07:06PM 37.6886 -122.0936 294° West 210 242 2,100 -720 Descending Oakland Center
07:07PM 37.7014 -122.1358 291° West 158 182 1,400 -720 Descending Oakland Center
07:08PM 37.7131 -122.1725 292° West 131 151 700 9,120 Descending Oakland Center
07:09PM 37.7256 -122.2122 292° West 124 143 20,000 18,960 Climbing Oakland Center
07:11PM 37.7167 -122.2167 270° West  Level FlightAware Approximate
07:18PM 37.7213 -122.2207 270° West  Level Estimated